createdAt,value
2022-08-28T00:00:04.499Z,20.49
2022-08-28T00:00:25.550Z,20.49
2022-08-28T00:00:46.599Z,20.48
2022-08-28T00:01:07.643Z,20.49
2022-08-28T00:01:28.697Z,20.48
2022-08-28T00:01:49.757Z,20.48
2022-08-28T00:02:10.810Z,20.48
2022-08-28T00:02:31.921Z,20.48
2022-08-28T00:02:53.009Z,20.48
2022-08-28T00:03:14.103Z,20.48
2022-08-28T00:03:36.625Z,20.48
2022-08-28T00:03:59.472Z,20.47
2022-08-28T00:04:20.562Z,20.47
2022-08-28T00:04:41.644Z,20.47
2022-08-28T00:05:02.746Z,20.47
2022-08-28T00:05:23.839Z,20.47
2022-08-28T00:05:44.906Z,20.46
2022-08-28T00:06:05.958Z,20.46
2022-08-28T00:06:27.004Z,20.46
2022-08-28T00:06:48.058Z,20.46
2022-08-28T00:07:09.107Z,20.46
2022-08-28T00:07:30.167Z,20.46
2022-08-28T00:07:51.215Z,20.45
2022-08-28T00:08:12.477Z,20.46
2022-08-28T00:08:33.596Z,20.45
2022-08-28T00:08:54.646Z,20.45
2022-08-28T00:09:15.718Z,20.45
2022-08-28T00:09:36.773Z,20.44
2022-08-28T00:09:57.824Z,20.44
2022-08-28T00:10:18.883Z,20.44
2022-08-28T00:10:39.952Z,20.43
2022-08-28T00:11:00.986Z,20.43
2022-08-28T00:11:22.045Z,20.42
2022-08-28T00:11:43.091Z,20.42
2022-08-28T00:12:04.136Z,20.41
2022-08-28T00:12:25.204Z,20.41
2022-08-28T00:12:46.244Z,20.40
2022-08-28T00:13:07.292Z,20.39
2022-08-28T00:13:28.342Z,20.39
2022-08-28T00:13:49.394Z,20.39
2022-08-28T00:14:10.446Z,20.38
2022-08-28T00:14:31.515Z,20.37
2022-08-28T00:14:52.581Z,20.37
2022-08-28T00:15:13.639Z,20.36
2022-08-28T00:15:34.706Z,20.36
2022-08-28T00:15:55.881Z,20.36
2022-08-28T00:16:16.976Z,20.35
2022-08-28T00:16:38.156Z,20.35
2022-08-28T00:16:59.196Z,20.34
2022-08-28T00:17:20.247Z,20.35
2022-08-28T00:17:41.292Z,20.34
2022-08-28T00:18:02.338Z,20.34
2022-08-28T00:18:23.388Z,20.34
2022-08-28T00:18:44.440Z,20.34
2022-08-28T00:19:08.049Z,20.33
2022-08-28T00:19:29.223Z,20.33
2022-08-28T00:19:50.273Z,20.33
2022-08-28T00:20:11.328Z,20.33
2022-08-28T00:20:32.375Z,20.32
2022-08-28T00:20:53.436Z,20.33
2022-08-28T00:21:14.475Z,20.32
2022-08-28T00:21:35.535Z,20.31
2022-08-28T00:21:56.589Z,20.31
2022-08-28T00:22:17.639Z,20.30
2022-08-28T00:22:38.689Z,20.30
2022-08-28T00:22:59.740Z,20.30
2022-08-28T00:23:20.798Z,20.30
2022-08-28T00:23:43.036Z,20.29
2022-08-28T00:24:04.267Z,20.29
2022-08-28T00:24:25.341Z,20.28
2022-08-28T00:24:46.409Z,20.28
2022-08-28T00:25:07.446Z,20.28
2022-08-28T00:25:28.498Z,20.27
2022-08-28T00:25:49.546Z,20.27
2022-08-28T00:26:10.608Z,20.27
2022-08-28T00:26:31.658Z,20.27
2022-08-28T00:26:52.706Z,20.27
2022-08-28T00:27:13.758Z,20.26
2022-08-28T00:27:34.809Z,20.26
2022-08-28T00:27:55.856Z,20.26
2022-08-28T00:28:23.945Z,20.26
2022-08-28T00:28:43.875Z,20.26
2022-08-28T00:29:04.947Z,20.24
2022-08-28T00:29:25.996Z,20.24
2022-08-28T00:29:47.059Z,20.24
2022-08-28T00:30:08.113Z,20.23
2022-08-28T00:30:29.171Z,20.23
2022-08-28T00:30:50.214Z,20.23
2022-08-28T00:31:11.366Z,20.22
2022-08-28T00:31:32.415Z,20.22
2022-08-28T00:31:53.433Z,20.21
2022-08-28T00:32:14.483Z,20.22
2022-08-28T00:32:35.531Z,20.21
2022-08-28T00:32:56.582Z,20.22
2022-08-28T00:33:17.628Z,20.20
2022-08-28T00:33:38.677Z,20.20
2022-08-28T00:33:59.726Z,20.20
2022-08-28T00:34:20.775Z,20.20
2022-08-28T00:34:47.846Z,20.20
2022-08-28T00:35:08.892Z,20.19
2022-08-28T00:35:29.947Z,20.19
2022-08-28T00:35:50.994Z,20.19
2022-08-28T00:36:12.051Z,20.18
2022-08-28T00:36:33.100Z,20.18
2022-08-28T00:36:54.147Z,20.17
2022-08-28T00:37:15.194Z,20.17
2022-08-28T00:37:36.252Z,20.16
2022-08-28T00:37:57.513Z,20.16
2022-08-28T00:38:18.554Z,20.16
2022-08-28T00:38:40.970Z,20.16
2022-08-28T00:39:03.490Z,20.16
2022-08-28T00:39:24.542Z,20.15
2022-08-28T00:39:45.822Z,20.15
2022-08-28T00:40:07.004Z,20.15
2022-08-28T00:40:28.646Z,20.14
2022-08-28T00:40:53.443Z,20.15
2022-08-28T00:41:15.970Z,20.14
2022-08-28T00:41:37.020Z,20.14
2022-08-28T00:42:02.117Z,20.14
2022-08-28T00:42:23.163Z,20.14
2022-08-28T00:42:44.215Z,20.14
2022-08-28T00:43:05.262Z,20.14
2022-08-28T00:43:26.326Z,20.14
2022-08-28T00:43:47.372Z,20.14
2022-08-28T00:44:08.432Z,20.14
2022-08-28T00:44:29.482Z,20.13
2022-08-28T00:44:50.535Z,20.14
2022-08-28T00:45:11.687Z,20.14
2022-08-28T00:45:37.301Z,20.14
2022-08-28T00:45:59.734Z,20.13
2022-08-28T00:46:20.872Z,20.13
2022-08-28T00:46:42.034Z,20.12
2022-08-28T00:47:03.093Z,20.12
2022-08-28T00:47:24.143Z,20.13
2022-08-28T00:47:46.508Z,20.13
2022-08-28T00:48:07.568Z,20.13
2022-08-28T00:48:28.607Z,20.13
2022-08-28T00:48:49.665Z,20.13
2022-08-28T00:49:10.719Z,20.13
2022-08-28T00:49:31.776Z,20.13
2022-08-28T00:49:52.827Z,20.13
2022-08-28T00:50:13.981Z,20.14
2022-08-28T00:50:35.050Z,20.14
2022-08-28T00:51:00.487Z,20.14
2022-08-28T00:51:21.710Z,20.15
2022-08-28T00:51:42.754Z,20.14
2022-08-28T00:52:03.807Z,20.14
2022-08-28T00:52:24.862Z,20.15
2022-08-28T00:52:45.911Z,20.15
2022-08-28T00:53:06.956Z,20.15
2022-08-28T00:53:30.194Z,20.15
2022-08-28T00:53:58.607Z,20.18
2022-08-28T00:54:20.073Z,20.18
2022-08-28T00:54:41.120Z,20.17
2022-08-28T00:55:08.090Z,20.18
2022-08-28T00:55:29.257Z,20.18
2022-08-28T00:55:50.305Z,20.18
2022-08-28T00:56:13.105Z,20.18
2022-08-28T00:56:34.451Z,20.19
2022-08-28T00:56:55.500Z,20.20
2022-08-28T00:57:16.561Z,20.19
2022-08-28T00:57:37.612Z,20.20
2022-08-28T00:57:58.676Z,20.20
2022-08-28T00:58:19.715Z,20.20
2022-08-28T00:58:40.761Z,20.20
2022-08-28T00:59:01.809Z,20.20
2022-08-28T00:59:22.856Z,20.21
2022-08-28T00:59:43.910Z,20.20
2022-08-28T01:00:04.953Z,20.21
2022-08-28T01:00:26.002Z,20.21
2022-08-28T01:00:47.076Z,20.21
2022-08-28T01:01:08.127Z,20.21
2022-08-28T01:01:29.223Z,20.21
2022-08-28T01:01:50.280Z,20.21
2022-08-28T01:02:11.295Z,20.21
2022-08-28T01:02:32.418Z,20.22
2022-08-28T01:02:53.513Z,20.21
2022-08-28T01:03:14.594Z,20.22
2022-08-28T01:03:35.613Z,20.22
2022-08-28T01:03:56.677Z,20.21
2022-08-28T01:04:17.712Z,20.21
2022-08-28T01:04:38.779Z,20.22
2022-08-28T01:04:59.817Z,20.21
2022-08-28T01:05:20.866Z,20.22
2022-08-28T01:05:41.914Z,20.21
2022-08-28T01:06:02.984Z,20.21
2022-08-28T01:06:24.034Z,20.22
2022-08-28T01:06:45.084Z,20.23
2022-08-28T01:07:06.144Z,20.22
2022-08-28T01:07:27.189Z,20.22
2022-08-28T01:07:48.259Z,20.22
2022-08-28T01:08:09.335Z,20.22
2022-08-28T01:08:32.771Z,20.22
2022-08-28T01:08:53.821Z,20.22
2022-08-28T01:09:14.864Z,20.22
2022-08-28T01:09:41.831Z,20.23
2022-08-28T01:10:02.886Z,20.23
2022-08-28T01:10:23.936Z,20.23
2022-08-28T01:10:45.011Z,20.23
2022-08-28T01:11:06.056Z,20.22
2022-08-28T01:11:27.105Z,20.22
2022-08-28T01:11:48.158Z,20.22
2022-08-28T01:12:09.211Z,20.23
2022-08-28T01:12:30.272Z,20.23
2022-08-28T01:12:51.312Z,20.23
2022-08-28T01:13:12.359Z,20.23
2022-08-28T01:13:33.408Z,20.22
2022-08-28T01:13:54.466Z,20.22
2022-08-28T01:14:15.505Z,20.22
2022-08-28T01:14:36.554Z,20.22
2022-08-28T01:14:57.610Z,20.22
2022-08-28T01:15:18.670Z,20.22
2022-08-28T01:15:39.851Z,20.22
2022-08-28T01:16:00.970Z,20.22
2022-08-28T01:16:22.085Z,20.22
2022-08-28T01:16:43.126Z,20.21
2022-08-28T01:17:04.169Z,20.21
2022-08-28T01:17:25.220Z,20.21
2022-08-28T01:17:46.280Z,20.21
2022-08-28T01:18:08.525Z,20.21
2022-08-28T01:18:29.679Z,20.20
2022-08-28T01:18:50.727Z,20.21
2022-08-28T01:19:11.780Z,20.21
2022-08-28T01:19:32.829Z,20.21
2022-08-28T01:19:53.885Z,20.21
2022-08-28T01:20:14.940Z,20.20
2022-08-28T01:20:35.988Z,20.21
2022-08-28T01:20:57.055Z,20.20
2022-08-28T01:21:20.462Z,20.21
2022-08-28T01:21:41.718Z,20.20
2022-08-28T01:22:02.768Z,20.20
2022-08-28T01:22:23.824Z,20.21
2022-08-28T01:22:44.872Z,20.21
2022-08-28T01:23:05.923Z,20.21
2022-08-28T01:23:26.969Z,20.21
2022-08-28T01:23:48.020Z,20.22
2022-08-28T01:24:09.071Z,20.21
2022-08-28T01:24:30.123Z,20.21
2022-08-28T01:24:51.178Z,20.21
2022-08-28T01:25:12.228Z,20.21
2022-08-28T01:25:33.283Z,20.21
2022-08-28T01:25:54.448Z,20.21
2022-08-28T01:26:15.515Z,20.21
2022-08-28T01:26:36.563Z,20.22
2022-08-28T01:26:57.613Z,20.21
2022-08-28T01:27:18.662Z,20.21
2022-08-28T01:27:39.720Z,20.22
2022-08-28T01:28:00.776Z,20.21
2022-08-28T01:28:21.831Z,20.21
2022-08-28T01:28:42.887Z,20.21
2022-08-28T01:29:03.938Z,20.21
2022-08-28T01:29:24.993Z,20.21
2022-08-28T01:29:48.025Z,20.21
2022-08-28T01:30:09.069Z,20.20
2022-08-28T01:30:30.126Z,20.21
2022-08-28T01:30:51.363Z,20.21
2022-08-28T01:31:12.590Z,20.21
2022-08-28T01:31:33.851Z,20.21
2022-08-28T01:31:54.860Z,20.20
2022-08-28T01:32:15.913Z,20.20
2022-08-28T01:32:36.959Z,20.21
2022-08-28T01:32:58.007Z,20.21
2022-08-28T01:33:19.056Z,20.21
2022-08-28T01:33:46.025Z,20.21
2022-08-28T01:34:07.083Z,20.20
2022-08-28T01:34:28.124Z,20.19
2022-08-28T01:34:49.177Z,20.19
2022-08-28T01:35:10.221Z,20.20
2022-08-28T01:35:31.273Z,20.20
2022-08-28T01:35:52.329Z,20.20
2022-08-28T01:36:13.374Z,20.19
2022-08-28T01:36:34.438Z,20.20
2022-08-28T01:36:55.480Z,20.19
2022-08-28T01:37:19.551Z,20.20
2022-08-28T01:37:40.594Z,20.19
2022-08-28T01:38:01.645Z,20.19
2022-08-28T01:38:26.854Z,20.18
2022-08-28T01:38:48.138Z,20.19
2022-08-28T01:39:09.183Z,20.18
2022-08-28T01:39:30.240Z,20.18
2022-08-28T01:39:51.287Z,20.18
2022-08-28T01:40:12.415Z,20.18
2022-08-28T01:40:33.478Z,20.18
2022-08-28T01:40:54.511Z,20.17
2022-08-28T01:41:15.579Z,20.16
2022-08-28T01:41:36.625Z,20.16
2022-08-28T01:41:57.675Z,20.15
2022-08-28T01:42:18.739Z,20.16
2022-08-28T01:42:39.781Z,20.15
2022-08-28T01:43:00.831Z,20.15
2022-08-28T01:43:21.877Z,20.14
2022-08-28T01:43:42.928Z,20.15
2022-08-28T01:44:03.974Z,20.14
2022-08-28T01:44:25.027Z,20.14
2022-08-28T01:44:46.072Z,20.14
2022-08-28T01:45:07.126Z,20.14
2022-08-28T01:45:28.179Z,20.13
2022-08-28T01:45:49.977Z,20.13
2022-08-28T01:46:11.099Z,20.13
2022-08-28T01:46:32.282Z,20.13
2022-08-28T01:46:53.322Z,20.12
2022-08-28T01:47:14.374Z,20.12
2022-08-28T01:47:35.429Z,20.12
2022-08-28T01:47:56.479Z,20.12
2022-08-28T01:48:17.525Z,20.11
2022-08-28T01:48:38.577Z,20.11
2022-08-28T01:48:59.622Z,20.10
2022-08-28T01:49:21.720Z,20.10
2022-08-28T01:49:42.768Z,20.10
2022-08-28T01:50:03.821Z,20.10
2022-08-28T01:50:24.863Z,20.10
2022-08-28T01:50:45.914Z,20.08
2022-08-28T01:51:06.981Z,20.08
2022-08-28T01:51:28.012Z,20.08
2022-08-28T01:51:54.991Z,20.09
2022-08-28T01:52:17.828Z,20.07
2022-08-28T01:52:44.797Z,20.07
2022-08-28T01:53:05.843Z,20.07
2022-08-28T01:53:32.496Z,20.06
2022-08-28T01:53:53.751Z,20.06
2022-08-28T01:54:14.796Z,20.06
2022-08-28T01:54:35.847Z,20.06
2022-08-28T01:54:57.548Z,20.06
2022-08-28T01:55:21.467Z,20.06
2022-08-28T01:55:42.684Z,20.06
2022-08-28T01:56:04.627Z,20.05
2022-08-28T01:56:25.853Z,20.06
2022-08-28T01:56:46.917Z,20.05
2022-08-28T01:57:07.964Z,20.06
2022-08-28T01:57:29.009Z,20.06
2022-08-28T01:57:50.063Z,20.06
2022-08-28T01:58:11.151Z,20.05
2022-08-28T01:58:34.924Z,20.05
2022-08-28T01:58:59.124Z,20.05
2022-08-28T01:59:20.175Z,20.05
2022-08-28T01:59:41.219Z,20.05
2022-08-28T02:00:03.065Z,20.05
2022-08-28T02:00:24.115Z,20.05
2022-08-28T02:00:45.168Z,20.05
2022-08-28T02:01:06.234Z,20.05
2022-08-28T02:01:27.335Z,20.04
2022-08-28T02:01:48.416Z,20.04
2022-08-28T02:02:09.546Z,20.04
2022-08-28T02:02:30.596Z,20.04
2022-08-28T02:02:51.648Z,20.03
2022-08-28T02:03:12.717Z,20.04
2022-08-28T02:03:33.752Z,20.03
2022-08-28T02:03:54.848Z,20.03
2022-08-28T02:04:15.968Z,20.03
2022-08-28T02:04:36.999Z,20.03
2022-08-28T02:04:58.032Z,20.02
2022-08-28T02:05:19.081Z,20.02
2022-08-28T02:05:40.134Z,20.02
2022-08-28T02:06:01.178Z,20.02
2022-08-28T02:06:22.225Z,20.02
2022-08-28T02:06:43.275Z,20.01
2022-08-28T02:07:04.341Z,20.02
2022-08-28T02:07:25.390Z,20.02
2022-08-28T02:07:46.439Z,20.01
2022-08-28T02:08:07.496Z,20.00
2022-08-28T02:08:28.546Z,20.01
2022-08-28T02:08:49.599Z,20.00
2022-08-28T02:09:14.353Z,20.00
2022-08-28T02:09:35.890Z,20.00
2022-08-28T02:09:56.940Z,19.99
2022-08-28T02:10:17.987Z,19.99
2022-08-28T02:10:39.050Z,19.98
2022-08-28T02:11:00.096Z,19.98
2022-08-28T02:11:21.154Z,19.97
2022-08-28T02:11:42.200Z,19.97
2022-08-28T02:12:06.417Z,19.98
2022-08-28T02:12:27.468Z,19.96
2022-08-28T02:12:48.514Z,19.96
2022-08-28T02:13:09.575Z,19.96
2022-08-28T02:13:30.632Z,19.96
2022-08-28T02:13:51.681Z,19.96
2022-08-28T02:14:15.346Z,19.96
2022-08-28T02:14:36.397Z,19.95
2022-08-28T02:14:57.448Z,19.96
2022-08-28T02:15:18.499Z,19.95
2022-08-28T02:15:45.480Z,19.95
2022-08-28T02:16:06.614Z,19.94
2022-08-28T02:16:27.646Z,19.94
2022-08-28T02:16:48.697Z,19.94
2022-08-28T02:17:09.771Z,19.94
2022-08-28T02:17:30.815Z,19.93
2022-08-28T02:17:51.872Z,19.92
2022-08-28T02:18:13.014Z,19.92
2022-08-28T02:18:34.080Z,19.92
2022-08-28T02:18:55.129Z,19.91
2022-08-28T02:19:16.189Z,19.91
2022-08-28T02:19:37.237Z,19.90
2022-08-28T02:19:58.290Z,19.90
2022-08-28T02:20:19.340Z,19.90
2022-08-28T02:20:40.390Z,19.89
2022-08-28T02:21:01.439Z,19.88
2022-08-28T02:21:22.485Z,19.88
2022-08-28T02:21:43.535Z,19.87
2022-08-28T02:22:04.580Z,19.87
2022-08-28T02:22:25.645Z,19.87
2022-08-28T02:22:46.692Z,19.86
2022-08-28T02:23:07.758Z,19.86
2022-08-28T02:23:28.799Z,19.85
2022-08-28T02:23:49.846Z,19.85
2022-08-28T02:24:10.895Z,19.85
2022-08-28T02:24:31.945Z,19.85
2022-08-28T02:24:52.995Z,19.85
2022-08-28T02:25:14.053Z,19.84
2022-08-28T02:25:35.097Z,19.84
2022-08-28T02:25:56.140Z,19.83
2022-08-28T02:26:17.187Z,19.83
2022-08-28T02:26:38.236Z,19.83
2022-08-28T02:26:59.284Z,19.82
2022-08-28T02:27:20.335Z,19.82
2022-08-28T02:27:41.393Z,19.82
2022-08-28T02:28:02.441Z,19.82
2022-08-28T02:28:23.840Z,19.81
2022-08-28T02:28:44.889Z,19.80
2022-08-28T02:29:05.941Z,19.80
2022-08-28T02:29:26.992Z,19.80
2022-08-28T02:29:48.039Z,19.80
2022-08-28T02:30:09.097Z,19.80
2022-08-28T02:30:30.145Z,19.79
2022-08-28T02:30:51.205Z,19.79
2022-08-28T02:31:12.254Z,19.78
2022-08-28T02:31:33.290Z,19.78
2022-08-28T02:31:54.341Z,19.78
2022-08-28T02:32:15.406Z,19.77
2022-08-28T02:32:36.438Z,19.77
2022-08-28T02:32:57.610Z,19.76
2022-08-28T02:33:18.666Z,19.75
2022-08-28T02:33:39.738Z,19.75
2022-08-28T02:34:00.791Z,19.75
2022-08-28T02:34:21.840Z,19.73
2022-08-28T02:34:42.895Z,19.73
2022-08-28T02:35:03.953Z,19.73
2022-08-28T02:35:30.921Z,19.74
2022-08-28T02:35:51.968Z,19.72
2022-08-28T02:36:13.017Z,19.72
2022-08-28T02:36:34.069Z,19.72
2022-08-28T02:36:55.116Z,19.72
2022-08-28T02:37:16.167Z,19.72
2022-08-28T02:37:37.211Z,19.71
2022-08-28T02:37:58.289Z,19.70
2022-08-28T02:38:21.592Z,19.70
2022-08-28T02:38:42.656Z,19.70
2022-08-28T02:39:03.702Z,19.70
2022-08-28T02:39:24.752Z,19.70
2022-08-28T02:39:45.799Z,19.69
2022-08-28T02:40:06.942Z,19.69
2022-08-28T02:40:28.124Z,19.69
2022-08-28T02:40:49.159Z,19.68
2022-08-28T02:41:10.209Z,19.68
2022-08-28T02:41:31.260Z,19.69
2022-08-28T02:41:52.305Z,19.68
2022-08-28T02:42:13.351Z,19.68
2022-08-28T02:42:36.043Z,19.68
2022-08-28T02:42:57.096Z,19.67
2022-08-28T02:43:18.248Z,19.68
2022-08-28T02:43:39.410Z,19.67
2022-08-28T02:44:00.470Z,19.68
2022-08-28T02:44:21.521Z,19.67
2022-08-28T02:44:42.566Z,19.67
2022-08-28T02:45:03.614Z,19.66
2022-08-28T02:45:24.668Z,19.66
2022-08-28T02:45:45.763Z,19.67
2022-08-28T02:46:09.059Z,19.66
2022-08-28T02:46:30.167Z,19.66
2022-08-28T02:46:51.250Z,19.66
2022-08-28T02:47:15.118Z,19.65
2022-08-28T02:47:36.161Z,19.65
2022-08-28T02:47:57.215Z,19.65
2022-08-28T02:48:18.495Z,19.65
2022-08-28T02:48:39.806Z,19.64
2022-08-28T02:49:00.864Z,19.65
2022-08-28T02:49:21.914Z,19.64
2022-08-28T02:49:42.963Z,19.65
2022-08-28T02:50:04.010Z,19.64
2022-08-28T02:50:25.060Z,19.64
2022-08-28T02:50:46.108Z,19.63
2022-08-28T02:51:07.162Z,19.63
2022-08-28T02:51:28.214Z,19.63
2022-08-28T02:51:49.266Z,19.62
2022-08-28T02:52:10.323Z,19.63
2022-08-28T02:52:31.370Z,19.63
2022-08-28T02:52:52.424Z,19.62
2022-08-28T02:53:13.473Z,19.62
2022-08-28T02:53:34.520Z,19.62
2022-08-28T02:53:55.586Z,19.62
2022-08-28T02:54:16.642Z,19.62
2022-08-28T02:54:39.566Z,19.61
2022-08-28T02:55:00.616Z,19.62
2022-08-28T02:55:21.666Z,19.62
2022-08-28T02:55:42.713Z,19.61
2022-08-28T02:56:03.762Z,19.61
2022-08-28T02:56:24.812Z,19.61
2022-08-28T02:56:45.860Z,19.61
2022-08-28T02:57:06.914Z,19.60
2022-08-28T02:57:27.967Z,19.60
2022-08-28T02:57:49.011Z,19.60
2022-08-28T02:58:10.061Z,19.60
2022-08-28T02:58:31.119Z,19.60
2022-08-28T02:58:52.168Z,19.60
2022-08-28T02:59:15.028Z,19.59
2022-08-28T02:59:36.073Z,19.59
2022-08-28T02:59:57.122Z,19.60
2022-08-28T03:00:18.171Z,19.59
2022-08-28T03:00:39.219Z,19.59
2022-08-28T03:01:00.303Z,19.59
2022-08-28T03:01:21.398Z,19.58
2022-08-28T03:01:42.464Z,19.59
2022-08-28T03:02:03.502Z,19.58
2022-08-28T03:02:24.593Z,19.58
2022-08-28T03:02:46.250Z,19.58
2022-08-28T03:03:07.311Z,19.58
2022-08-28T03:03:28.359Z,19.58
2022-08-28T03:03:49.421Z,19.58
2022-08-28T03:04:10.470Z,19.58
2022-08-28T03:04:31.619Z,19.58
2022-08-28T03:04:52.672Z,19.57
2022-08-28T03:05:13.723Z,19.57
2022-08-28T03:05:34.766Z,19.57
2022-08-28T03:05:55.820Z,19.58
2022-08-28T03:06:16.867Z,19.57
2022-08-28T03:06:37.921Z,19.57
2022-08-28T03:06:58.978Z,19.57
2022-08-28T03:07:20.029Z,19.57
2022-08-28T03:07:41.077Z,19.56
2022-08-28T03:08:02.129Z,19.56
2022-08-28T03:08:23.179Z,19.56
2022-08-28T03:08:48.328Z,19.57
2022-08-28T03:09:09.374Z,19.56
2022-08-28T03:09:30.540Z,19.56
2022-08-28T03:09:51.586Z,19.56
2022-08-28T03:10:12.641Z,19.55
2022-08-28T03:10:33.695Z,19.55
2022-08-28T03:10:54.750Z,19.55
2022-08-28T03:11:15.797Z,19.55
2022-08-28T03:11:36.861Z,19.55
2022-08-28T03:11:57.898Z,19.54
2022-08-28T03:12:18.950Z,19.54
2022-08-28T03:12:40.000Z,19.55
2022-08-28T03:13:01.048Z,19.54
2022-08-28T03:13:26.514Z,19.54
2022-08-28T03:13:49.075Z,19.54
2022-08-28T03:14:10.125Z,19.53
2022-08-28T03:14:31.192Z,19.54
2022-08-28T03:14:52.243Z,19.53
2022-08-28T03:15:13.299Z,19.52
2022-08-28T03:15:34.348Z,19.52
2022-08-28T03:15:55.536Z,19.52
2022-08-28T03:16:17.141Z,19.53
2022-08-28T03:16:38.261Z,19.52
2022-08-28T03:16:59.315Z,19.53
2022-08-28T03:17:20.449Z,19.52
2022-08-28T03:17:41.946Z,19.52
2022-08-28T03:18:02.984Z,19.53
2022-08-28T03:18:29.956Z,19.53
2022-08-28T03:18:50.998Z,19.53
2022-08-28T03:19:12.045Z,19.52
2022-08-28T03:19:33.221Z,19.52
2022-08-28T03:19:54.272Z,19.52
2022-08-28T03:20:15.321Z,19.51
2022-08-28T03:20:36.382Z,19.50
2022-08-28T03:20:58.253Z,19.50
2022-08-28T03:21:19.304Z,19.50
2022-08-28T03:21:40.351Z,19.50
2022-08-28T03:22:01.400Z,19.49
2022-08-28T03:22:22.448Z,19.49
2022-08-28T03:22:43.500Z,19.49
2022-08-28T03:23:04.548Z,19.48
2022-08-28T03:23:25.600Z,19.48
2022-08-28T03:23:46.646Z,19.47
2022-08-28T03:24:07.691Z,19.46
2022-08-28T03:24:28.744Z,19.47
2022-08-28T03:24:49.905Z,19.47
2022-08-28T03:25:10.952Z,19.46
2022-08-28T03:25:32.003Z,19.47
2022-08-28T03:25:53.052Z,19.46
2022-08-28T03:26:14.100Z,19.45
2022-08-28T03:26:35.160Z,19.46
2022-08-28T03:26:56.559Z,19.45
2022-08-28T03:27:17.606Z,19.44
2022-08-28T03:27:38.658Z,19.45
2022-08-28T03:27:59.709Z,19.44
2022-08-28T03:28:20.756Z,19.44
2022-08-28T03:28:41.807Z,19.44
2022-08-28T03:29:02.862Z,19.44
2022-08-28T03:29:23.905Z,19.44
2022-08-28T03:29:44.954Z,19.43
2022-08-28T03:30:06.031Z,19.43
2022-08-28T03:30:27.144Z,19.43
2022-08-28T03:30:48.228Z,19.43
2022-08-28T03:31:09.362Z,19.43
2022-08-28T03:31:30.423Z,19.43
2022-08-28T03:31:51.466Z,19.42
2022-08-28T03:32:12.515Z,19.42
2022-08-28T03:32:33.565Z,19.43
2022-08-28T03:32:54.616Z,19.42
2022-08-28T03:33:15.661Z,19.43
2022-08-28T03:33:36.710Z,19.43
2022-08-28T03:33:57.766Z,19.43
2022-08-28T03:34:18.818Z,19.43
2022-08-28T03:34:39.868Z,19.43
2022-08-28T03:35:00.917Z,19.43
2022-08-28T03:35:21.963Z,19.44
2022-08-28T03:35:43.131Z,19.43
2022-08-28T03:36:04.944Z,19.44
2022-08-28T03:36:26.035Z,19.43
2022-08-28T03:36:47.091Z,19.44
2022-08-28T03:37:08.139Z,19.44
2022-08-28T03:37:29.266Z,19.44
2022-08-28T03:37:50.321Z,19.44
2022-08-28T03:38:11.479Z,19.44
2022-08-28T03:38:32.655Z,19.44
2022-08-28T03:38:53.757Z,19.44
2022-08-28T03:39:14.804Z,19.44
2022-08-28T03:39:35.874Z,19.44
2022-08-28T03:39:56.970Z,19.44
2022-08-28T03:40:18.043Z,19.44
2022-08-28T03:40:39.265Z,19.45
2022-08-28T03:41:00.293Z,19.43
2022-08-28T03:41:21.344Z,19.45
2022-08-28T03:41:42.402Z,19.44
2022-08-28T03:42:03.463Z,19.45
2022-08-28T03:42:24.516Z,19.44
2022-08-28T03:42:46.971Z,19.45
2022-08-28T03:43:12.534Z,19.46
2022-08-28T03:43:33.596Z,19.45
2022-08-28T03:43:54.651Z,19.45
2022-08-28T03:44:15.697Z,19.45
2022-08-28T03:44:36.745Z,19.45
2022-08-28T03:44:57.796Z,19.45
2022-08-28T03:45:18.856Z,19.45
2022-08-28T03:45:40.095Z,19.45
2022-08-28T03:46:01.145Z,19.45
2022-08-28T03:46:22.239Z,19.45
2022-08-28T03:46:43.245Z,19.45
2022-08-28T03:47:04.301Z,19.45
2022-08-28T03:47:25.659Z,19.45
2022-08-28T03:47:46.975Z,19.45
2022-08-28T03:48:08.022Z,19.45
2022-08-28T03:48:29.068Z,19.45
2022-08-28T03:48:50.114Z,19.45
2022-08-28T03:49:11.977Z,19.45
2022-08-28T03:49:33.034Z,19.45
2022-08-28T03:49:54.079Z,19.44
2022-08-28T03:50:15.131Z,19.45
2022-08-28T03:50:36.182Z,19.45
2022-08-28T03:50:57.249Z,19.45
2022-08-28T03:51:18.302Z,19.45
2022-08-28T03:51:39.346Z,19.45
2022-08-28T03:52:00.397Z,19.45
2022-08-28T03:52:21.444Z,19.45
2022-08-28T03:52:42.496Z,19.45
2022-08-28T03:53:03.546Z,19.45
2022-08-28T03:53:24.596Z,19.45
2022-08-28T03:53:45.645Z,19.45
2022-08-28T03:54:06.693Z,19.45
2022-08-28T03:54:27.739Z,19.45
2022-08-28T03:54:48.791Z,19.45
2022-08-28T03:55:09.841Z,19.45
2022-08-28T03:55:30.887Z,19.46
2022-08-28T03:55:51.937Z,19.46
2022-08-28T03:56:13.011Z,19.45
2022-08-28T03:56:34.058Z,19.45
2022-08-28T03:56:55.108Z,19.45
2022-08-28T03:57:16.162Z,19.46
2022-08-28T03:57:37.227Z,19.46
2022-08-28T03:57:58.264Z,19.46
2022-08-28T03:58:19.428Z,19.45
2022-08-28T03:58:40.436Z,19.46
2022-08-28T03:59:01.497Z,19.46
2022-08-28T03:59:22.542Z,19.46
2022-08-28T03:59:47.653Z,19.46
2022-08-28T04:00:08.705Z,19.45
2022-08-28T04:00:29.748Z,19.46
2022-08-28T04:00:50.797Z,19.46
2022-08-28T04:01:11.904Z,19.45
2022-08-28T04:01:32.992Z,19.46
2022-08-28T04:01:54.017Z,19.45
2022-08-28T04:02:15.065Z,19.46
2022-08-28T04:02:36.117Z,19.45
2022-08-28T04:02:57.182Z,19.45
2022-08-28T04:03:18.272Z,19.45
2022-08-28T04:03:39.412Z,19.45
2022-08-28T04:04:00.459Z,19.45
2022-08-28T04:04:21.510Z,19.45
2022-08-28T04:04:42.568Z,19.45
2022-08-28T04:05:03.611Z,19.45
2022-08-28T04:05:25.002Z,19.44
2022-08-28T04:05:46.085Z,19.45
2022-08-28T04:06:07.141Z,19.46
2022-08-28T04:06:28.192Z,19.45
2022-08-28T04:06:49.249Z,19.44
2022-08-28T04:07:10.317Z,19.45
2022-08-28T04:07:31.367Z,19.44
2022-08-28T04:07:52.421Z,19.44
2022-08-28T04:08:13.677Z,19.45
2022-08-28T04:08:34.813Z,19.45
2022-08-28T04:08:55.861Z,19.45
2022-08-28T04:09:21.341Z,19.45
2022-08-28T04:09:42.389Z,19.45
2022-08-28T04:10:03.441Z,19.44
2022-08-28T04:10:24.552Z,19.45
2022-08-28T04:10:45.597Z,19.45
2022-08-28T04:11:06.657Z,19.45
2022-08-28T04:11:27.706Z,19.44
2022-08-28T04:11:48.759Z,19.44
2022-08-28T04:12:09.912Z,19.45
2022-08-28T04:12:35.253Z,19.45
2022-08-28T04:12:56.505Z,19.45
2022-08-28T04:13:17.575Z,19.44
2022-08-28T04:13:38.622Z,19.44
2022-08-28T04:13:59.670Z,19.44
2022-08-28T04:14:20.719Z,19.44
2022-08-28T04:14:41.766Z,19.44
2022-08-28T04:15:02.815Z,19.44
2022-08-28T04:15:23.864Z,19.44
2022-08-28T04:15:44.921Z,19.44
2022-08-28T04:16:06.531Z,19.44
2022-08-28T04:16:27.695Z,19.44
2022-08-28T04:16:48.766Z,19.44
2022-08-28T04:17:09.875Z,19.44
2022-08-28T04:17:30.924Z,19.43
2022-08-28T04:17:51.970Z,19.43
2022-08-28T04:18:13.288Z,19.43
2022-08-28T04:18:34.534Z,19.43
2022-08-28T04:18:55.568Z,19.44
2022-08-28T04:19:16.616Z,19.43
2022-08-28T04:19:37.664Z,19.43
2022-08-28T04:19:58.729Z,19.43
2022-08-28T04:20:19.787Z,19.43
2022-08-28T04:20:40.843Z,19.43
2022-08-28T04:21:01.888Z,19.43
2022-08-28T04:21:22.937Z,19.43
2022-08-28T04:21:43.985Z,19.43
2022-08-28T04:22:05.034Z,19.43
2022-08-28T04:22:26.090Z,19.43
2022-08-28T04:22:47.240Z,19.44
2022-08-28T04:23:08.287Z,19.44
2022-08-28T04:23:29.339Z,19.44
2022-08-28T04:23:50.382Z,19.44
2022-08-28T04:24:11.435Z,19.44
2022-08-28T04:24:32.487Z,19.44
2022-08-28T04:24:53.536Z,19.44
2022-08-28T04:25:14.584Z,19.45
2022-08-28T04:25:35.638Z,19.45
2022-08-28T04:25:56.689Z,19.44
2022-08-28T04:26:17.738Z,19.45
2022-08-28T04:26:38.805Z,19.45
2022-08-28T04:26:59.839Z,19.46
2022-08-28T04:27:20.895Z,19.46
2022-08-28T04:27:42.056Z,19.46
2022-08-28T04:28:03.107Z,19.46
2022-08-28T04:28:24.162Z,19.46
2022-08-28T04:28:45.210Z,19.45
2022-08-28T04:29:06.265Z,19.45
2022-08-28T04:29:27.319Z,19.45
2022-08-28T04:29:48.372Z,19.46
2022-08-28T04:30:09.776Z,19.45
2022-08-28T04:30:31.161Z,19.45
2022-08-28T04:30:52.220Z,19.45
2022-08-28T04:31:13.270Z,19.46
2022-08-28T04:31:34.343Z,19.45
2022-08-28T04:31:55.455Z,19.44
2022-08-28T04:32:16.557Z,19.45
2022-08-28T04:32:37.626Z,19.44
2022-08-28T04:32:58.693Z,19.45
2022-08-28T04:33:19.740Z,19.44
2022-08-28T04:33:40.799Z,19.45
2022-08-28T04:34:01.853Z,19.45
2022-08-28T04:34:22.899Z,19.45